Terminal Aerodrome Forecast
Issued by NWS

Home | Current Version | Previous Version | Text Only | Print | Product List | Glossary On
Versions: 1 2 3 4 5 6 7 8 9 10 11 12 13 14 15 16 17 18 19
000
FTUS43 KILX 171700 RRA
TAFBMI
TAF
KBMI 171743Z 1718/1818 25012KT P6SM SCT040 BKN200
     FM172200 26010KT P6SM BKN070
     FM180200 VRB04KT P6SM -SHRA OVC050
     FM180800 01004KT P6SM BKN040
     FM181300 05006KT P6SM SKC=

USA.gov is the U.S. government's official web portal to all federal, state and local government web resources and services.